sensor_id;sensor_type;location;lat;lon;timestamp;pressure;altitude;pressure_sealevel;temperature;humidity
69751;BME280;57335;52.288;6.056;2023-04-08T00:01:39;102275.94;;;1.68;100.00
69751;BME280;57335;52.288;6.056;2023-04-08T00:04:06;102289.66;;;1.68;100.00
69751;BME280;57335;52.288;6.056;2023-04-08T00:06:32;102286.25;;;1.56;100.00
69751;BME280;57335;52.288;6.056;2023-04-08T00:08:59;102281.06;;;1.56;100.00
69751;BME280;57335;52.288;6.056;2023-04-08T00:11:25;102287.88;;;1.57;100.00
69751;BME280;57335;52.288;6.056;2023-04-08T00:13:52;102297.59;;;1.54;100.00
69751;BME280;57335;52.288;6.056;2023-04-08T00:16:18;102292.06;;;1.47;100.00
69751;BME280;57335;52.288;6.056;2023-04-08T00:18:44;102295.38;;;1.49;100.00
69751;BME280;57335;52.288;6.056;2023-04-08T00:21:11;102294.75;;;1.46;100.00
69751;BME280;57335;52.288;6.056;2023-04-08T00:23:37;102299.19;;;1.44;100.00
69751;BME280;57335;52.288;6.056;2023-04-08T00:26:03;102295.53;;;1.35;100.00
69751;BME280;57335;52.288;6.056;2023-04-08T00:28:30;102305.25;;;1.31;100.00
69751;BME280;57335;52.288;6.056;2023-04-08T00:30:56;102295.69;;;1.21;100.00
69751;BME280;57335;52.288;6.056;2023-04-08T00:33:22;102300.63;;;1.24;100.00
69751;BME280;57335;52.288;6.056;2023-04-08T00:35:49;102290.25;;;1.12;100.00
69751;BME280;57335;52.288;6.056;2023-04-08T00:38:15;102300.34;;;1.15;100.00
69751;BME280;57335;52.288;6.056;2023-04-08T00:40:41;102287.47;;;1.03;100.00
69751;BME280;57335;52.288;6.056;2023-04-08T00:43:08;102303.56;;;1.06;100.00
69751;BME280;57335;52.288;6.056;2023-04-08T00:45:34;102302.13;;;1.02;100.00
69751;BME280;57335;52.288;6.056;2023-04-08T00:48:01;102309.75;;;1.04;100.00
69751;BME280;57335;52.288;6.056;2023-04-08T00:50:27;102305.03;;;0.97;100.00
69751;BME280;57335;52.288;6.056;2023-04-08T00:52:54;102313.00;;;0.94;100.00
69751;BME280;57335;52.288;6.056;2023-04-08T00:55:20;102299.28;;;0.81;100.00
69751;BME280;57335;52.288;6.056;2023-04-08T00:57:47;102313.72;;;0.84;100.00
69751;BME280;57335;52.288;6.056;2023-04-08T01:00:14;102318.25;;;0.80;100.00
69751;BME280;57335;52.288;6.056;2023-04-08T01:03:07;102315.91;;;0.77;100.00
69751;BME280;57335;52.288;6.056;2023-04-08T01:05:55;102312.94;;;0.70;100.00
69751;BME280;57335;52.288;6.056;2023-04-08T01:08:26;102326.75;;;0.69;100.00
69751;BME280;57335;52.288;6.056;2023-04-08T01:10:58;102324.50;;;0.65;100.00
69751;BME280;57335;52.288;6.056;2023-04-08T01:13:29;102317.03;;;0.60;100.00
69751;BME280;57335;52.288;6.056;2023-04-08T01:15:57;102315.19;;;0.62;100.00
69751;BME280;57335;52.288;6.056;2023-04-08T01:18:28;102332.00;;;0.68;100.00
69751;BME280;57335;52.288;6.056;2023-04-08T01:20:57;102314.47;;;0.60;100.00
69751;BME280;57335;52.288;6.056;2023-04-08T01:23:36;102332.13;;;0.66;100.00
69751;BME280;57335;52.288;6.056;2023-04-08T01:26:04;102318.81;;;0.59;100.00
69751;BME280;57335;52.288;6.056;2023-04-08T01:28:31;102331.09;;;0.69;100.00
69751;BME280;57335;52.288;6.056;2023-04-08T01:30:59;102340.47;;;0.70;100.00
69751;BME280;57335;52.288;6.056;2023-04-08T01:33:27;102338.94;;;0.67;100.00
69751;BME280;57335;52.288;6.056;2023-04-08T01:35:55;102328.81;;;0.64;100.00
69751;BME280;57335;52.288;6.056;2023-04-08T01:38:23;102339.66;;;0.69;100.00
69751;BME280;57335;52.288;6.056;2023-04-08T01:40:52;102344.72;;;0.71;100.00
69751;BME280;57335;52.288;6.056;2023-04-08T01:43:19;102331.50;;;0.63;100.00
69751;BME280;57335;52.288;6.056;2023-04-08T01:45:47;102324.19;;;0.56;100.00
69751;BME280;57335;52.288;6.056;2023-04-08T01:48:14;102341.59;;;0.66;100.00
69751;BME280;57335;52.288;6.056;2023-04-08T01:50:42;102349.25;;;0.67;100.00
69751;BME280;57335;52.288;6.056;2023-04-08T01:53:09;102351.94;;;0.66;100.00
69751;BME280;57335;52.288;6.056;2023-04-08T01:55:41;102343.28;;;0.67;100.00
69751;BME280;57335;52.288;6.056;2023-04-08T01:58:11;102351.00;;;0.67;100.00
69751;BME280;57335;52.288;6.056;2023-04-08T02:00:42;102343.78;;;0.59;100.00
69751;BME280;57335;52.288;6.056;2023-04-08T02:03:11;102347.91;;;0.62;100.00
69751;BME280;57335;52.288;6.056;2023-04-08T02:05:38;102349.66;;;0.61;100.00
69751;BME280;57335;52.288;6.056;2023-04-08T02:08:05;102346.28;;;0.61;100.00
69751;BME280;57335;52.288;6.056;2023-04-08T02:10:31;102348.72;;;0.62;100.00
69751;BME280;57335;52.288;6.056;2023-04-08T02:12:58;102335.66;;;0.52;100.00
69751;BME280;57335;52.288;6.056;2023-04-08T02:15:24;102352.34;;;0.59;100.00
69751;BME280;57335;52.288;6.056;2023-04-08T02:17:55;102353.56;;;0.54;100.00
69751;BME280;57335;52.288;6.056;2023-04-08T02:23:01;102351.13;;;0.52;100.00
69751;BME280;57335;52.288;6.056;2023-04-08T02:25:29;102343.16;;;0.43;100.00
69751;BME280;57335;52.288;6.056;2023-04-08T02:27:59;102351.72;;;0.43;100.00
69751;BME280;57335;52.288;6.056;2023-04-08T02:30:27;102351.63;;;0.45;100.00
69751;BME280;57335;52.288;6.056;2023-04-08T02:32:55;102355.44;;;0.39;100.00
69751;BME280;57335;52.288;6.056;2023-04-08T02:35:23;102352.53;;;0.31;100.00
69751;BME280;57335;52.288;6.056;2023-04-08T02:37:50;102367.59;;;0.37;100.00
69751;BME280;57335;52.288;6.056;2023-04-08T02:40:29;102372.03;;;0.35;100.00
69751;BME280;57335;52.288;6.056;2023-04-08T02:42:56;102372.75;;;0.24;100.00
69751;BME280;57335;52.288;6.056;2023-04-08T02:45:27;102367.47;;;0.26;100.00
69751;BME280;57335;52.288;6.056;2023-04-08T02:47:55;102372.22;;;0.32;100.00
69751;BME280;57335;52.288;6.056;2023-04-08T02:50:21;102370.69;;;0.29;100.00
69751;BME280;57335;52.288;6.056;2023-04-08T02:52:47;102360.03;;;0.21;100.00
69751;BME280;57335;52.288;6.056;2023-04-08T02:55:14;102370.91;;;0.26;100.00
69751;BME280;57335;52.288;6.056;2023-04-08T02:57:41;102384.63;;;0.27;100.00
69751;BME280;57335;52.288;6.056;2023-04-08T03:00:08;102385.44;;;0.27;100.00
69751;BME280;57335;52.288;6.056;2023-04-08T03:02:34;102382.44;;;0.21;100.00
69751;BME280;57335;52.288;6.056;2023-04-08T03:05:01;102370.75;;;0.15;100.00
69751;BME280;57335;52.288;6.056;2023-04-08T03:07:28;102361.38;;;0.14;100.00
69751;BME280;57335;52.288;6.056;2023-04-08T03:09:54;102387.38;;;0.24;100.00
69751;BME280;57335;52.288;6.056;2023-04-08T03:12:21;102395.09;;;0.24;100.00
69751;BME280;57335;52.288;6.056;2023-04-08T03:14:48;102383.06;;;0.24;100.00
69751;BME280;57335;52.288;6.056;2023-04-08T03:17:15;102368.09;;;0.16;100.00
69751;BME280;57335;52.288;6.056;2023-04-08T03:19:42;102376.75;;;0.15;100.00
69751;BME280;57335;52.288;6.056;2023-04-08T03:22:08;102380.44;;;0.11;100.00
69751;BME280;57335;52.288;6.056;2023-04-08T03:24:35;102387.03;;;0.15;100.00
69751;BME280;57335;52.288;6.056;2023-04-08T03:27:01;102375.69;;;0.05;100.00
69751;BME280;57335;52.288;6.056;2023-04-08T03:29:28;102374.97;;;0.03;100.00
69751;BME280;57335;52.288;6.056;2023-04-08T03:31:55;102383.31;;;0.07;100.00
69751;BME280;57335;52.288;6.056;2023-04-08T03:34:21;102392.81;;;0.06;100.00
69751;BME280;57335;52.288;6.056;2023-04-08T03:36:48;102373.25;;;-0.11;100.00
69751;BME280;57335;52.288;6.056;2023-04-08T03:39:14;102369.22;;;-0.15;100.00
69751;BME280;57335;52.288;6.056;2023-04-08T03:41:40;102387.59;;;-0.07;100.00
69751;BME280;57335;52.288;6.056;2023-04-08T03:44:07;102392.25;;;-0.12;100.00
69751;BME280;57335;52.288;6.056;2023-04-08T03:46:33;102395.53;;;-0.10;100.00
69751;BME280;57335;52.288;6.056;2023-04-08T03:48:59;102398.72;;;-0.06;100.00
69751;BME280;57335;52.288;6.056;2023-04-08T03:51:26;102400.50;;;-0.07;100.00
69751;BME280;57335;52.288;6.056;2023-04-08T03:53:52;102389.84;;;-0.15;100.00
69751;BME280;57335;52.288;6.056;2023-04-08T03:56:19;102400.16;;;-0.15;100.00
69751;BME280;57335;52.288;6.056;2023-04-08T03:58:45;102400.16;;;-0.15;100.00
69751;BME280;57335;52.288;6.056;2023-04-08T04:01:11;102403.75;;;-0.17;100.00
69751;BME280;57335;52.288;6.056;2023-04-08T04:03:38;102389.97;;;-0.31;100.00
69751;BME280;57335;52.288;6.056;2023-04-08T04:06:04;102398.34;;;-0.27;100.00
69751;BME280;57335;52.288;6.056;2023-04-08T04:08:31;102410.19;;;-0.25;100.00
69751;BME280;57335;52.288;6.056;2023-04-08T04:10:58;102395.88;;;-0.29;100.00
69751;BME280;57335;52.288;6.056;2023-04-08T04:13:24;102405.13;;;-0.26;100.00
69751;BME280;57335;52.288;6.056;2023-04-08T04:15:51;102400.00;;;-0.26;100.00
69751;BME280;57335;52.288;6.056;2023-04-08T04:18:17;102418.47;;;-0.19;100.00
69751;BME280;57335;52.288;6.056;2023-04-08T04:20:43;102415.81;;;-0.18;100.00
69751;BME280;57335;52.288;6.056;2023-04-08T04:23:10;102410.19;;;-0.25;100.00
69751;BME280;57335;52.288;6.056;2023-04-08T04:25:40;102410.19;;;-0.25;100.00
69751;BME280;57335;52.288;6.056;2023-04-08T04:28:06;102407.28;;;-0.33;100.00
69751;BME280;57335;52.288;6.056;2023-04-08T04:30:35;102409.38;;;-0.25;100.00
69751;BME280;57335;52.288;6.056;2023-04-08T04:33:02;102424.75;;;-0.24;100.00
69751;BME280;57335;52.288;6.056;2023-04-08T04:35:28;102430.63;;;-0.22;100.00
69751;BME280;57335;52.288;6.056;2023-04-08T04:37:55;102440.09;;;-0.22;100.00
69751;BME280;57335;52.288;6.056;2023-04-08T04:40:21;102420.16;;;-0.33;100.00
69751;BME280;57335;52.288;6.056;2023-04-08T04:42:48;102429.44;;;-0.30;100.00
69751;BME280;57335;52.288;6.056;2023-04-08T04:45:14;102435.31;;;-0.28;100.00
69751;BME280;57335;52.288;6.056;2023-04-08T04:47:41;102438.09;;;-0.31;100.00
69751;BME280;57335;52.288;6.056;2023-04-08T04:50:07;102447.22;;;-0.26;100.00
69751;BME280;57335;52.288;6.056;2023-04-08T04:52:35;102426.25;;;-0.34;100.00
69751;BME280;57335;52.288;6.056;2023-04-08T04:55:01;102443.16;;;-0.30;100.00
69751;BME280;57335;52.288;6.056;2023-04-08T04:57:28;102444.28;;;-0.34;100.00
69751;BME280;57335;52.288;6.056;2023-04-08T04:59:54;102450.53;;;-0.24;100.00
69751;BME280;57335;52.288;6.056;2023-04-08T05:02:20;102446.66;;;-0.31;100.00
69751;BME280;57335;52.288;6.056;2023-04-08T05:04:47;102451.72;;;-0.29;100.00
69751;BME280;57335;52.288;6.056;2023-04-08T05:07:13;102459.16;;;-0.25;100.00
69751;BME280;57335;52.288;6.056;2023-04-08T05:09:40;102465.41;;;-0.29;100.00
69751;BME280;57335;52.288;6.056;2023-04-08T05:12:06;102457.44;;;-0.38;100.00
69751;BME280;57335;52.288;6.056;2023-04-08T05:14:32;102454.69;;;-0.35;100.00
69751;BME280;57335;52.288;6.056;2023-04-08T05:16:59;102451.28;;;-0.36;100.00
69751;BME280;57335;52.288;6.056;2023-04-08T05:19:25;102471.31;;;-0.27;100.00
69751;BME280;57335;52.288;6.056;2023-04-08T05:21:51;102459.53;;;-0.31;100.00
69751;BME280;57335;52.288;6.056;2023-04-08T05:24:18;102477.09;;;-0.23;100.00
69751;BME280;57335;52.288;6.056;2023-04-08T05:26:44;102464.50;;;-0.28;100.00
69751;BME280;57335;52.288;6.056;2023-04-08T05:29:10;102455.59;;;-0.36;100.00
69751;BME280;57335;52.288;6.056;2023-04-08T05:31:37;102463.97;;;-0.33;100.00
69751;BME280;57335;52.288;6.056;2023-04-08T05:34:03;102461.38;;;-0.33;100.00
69751;BME280;57335;52.288;6.056;2023-04-08T05:36:29;102461.94;;;-0.28;100.00
69751;BME280;57335;52.288;6.056;2023-04-08T05:38:56;102469.63;;;-0.13;100.00
69751;BME280;57335;52.288;6.056;2023-04-08T05:41:22;102465.38;;;-0.14;100.00
69751;BME280;57335;52.288;6.056;2023-04-08T05:43:48;102478.53;;;-0.05;100.00
69751;BME280;57335;52.288;6.056;2023-04-08T05:46:15;102476.78;;;-0.04;100.00
69751;BME280;57335;52.288;6.056;2023-04-08T05:48:41;102490.94;;;0.03;100.00
69751;BME280;57335;52.288;6.056;2023-04-08T05:51:12;102484.75;;;0.06;100.00
69751;BME280;57335;52.288;6.056;2023-04-08T05:53:40;102470.88;;;0.08;100.00
69751;BME280;57335;52.288;6.056;2023-04-08T05:56:06;102478.25;;;0.27;100.00
69751;BME280;57335;52.288;6.056;2023-04-08T05:58:33;102482.56;;;0.54;100.00
69751;BME280;57335;52.288;6.056;2023-04-08T06:00:59;102485.41;;;0.76;100.00
69751;BME280;57335;52.288;6.056;2023-04-08T06:03:26;102476.63;;;0.92;100.00
69751;BME280;57335;52.288;6.056;2023-04-08T06:05:52;102484.69;;;1.26;100.00
69751;BME280;57335;52.288;6.056;2023-04-08T06:08:19;102492.53;;;1.50;100.00
69751;BME280;57335;52.288;6.056;2023-04-08T06:10:49;102474.66;;;1.47;100.00
69751;BME280;57335;52.288;6.056;2023-04-08T06:13:15;102484.25;;;1.57;100.00
69751;BME280;57335;52.288;6.056;2023-04-08T06:15:42;102484.25;;;1.57;100.00
69751;BME280;57335;52.288;6.056;2023-04-08T06:18:08;102498.91;;;1.70;100.00
69751;BME280;57335;52.288;6.056;2023-04-08T06:20:34;102503.47;;;1.66;100.00
69751;BME280;57335;52.288;6.056;2023-04-08T06:23:01;102500.44;;;1.72;100.00
69751;BME280;57335;52.288;6.056;2023-04-08T06:25:27;102511.50;;;1.74;100.00
69751;BME280;57335;52.288;6.056;2023-04-08T06:27:53;102506.56;;;1.71;100.00
69751;BME280;57335;52.288;6.056;2023-04-08T06:30:20;102512.75;;;1.82;100.00
69751;BME280;57335;52.288;6.056;2023-04-08T06:32:46;102529.78;;;1.97;100.00
69751;BME280;57335;52.288;6.056;2023-04-08T06:35:13;102518.47;;;1.98;100.00
69751;BME280;57335;52.288;6.056;2023-04-08T06:37:39;102507.22;;;1.99;100.00
69751;BME280;57335;52.288;6.056;2023-04-08T06:40:06;102513.38;;;2.09;100.00
69751;BME280;57335;52.288;6.056;2023-04-08T06:42:32;102530.63;;;2.22;100.00
69751;BME280;57335;52.288;6.056;2023-04-08T06:44:59;102533.91;;;2.24;100.00
69751;BME280;57335;52.288;6.056;2023-04-08T06:47:25;102555.63;;;2.34;100.00
69751;BME280;57335;52.288;6.056;2023-04-08T06:49:51;102561.13;;;2.29;100.00
69751;BME280;57335;52.288;6.056;2023-04-08T06:52:18;102542.63;;;2.23;100.00
69751;BME280;57335;52.288;6.056;2023-04-08T06:54:44;102560.88;;;2.32;100.00
69751;BME280;57335;52.288;6.056;2023-04-08T06:57:11;102544.44;;;2.33;100.00
69751;BME280;57335;52.288;6.056;2023-04-08T06:59:37;102551.22;;;2.47;100.00
69751;BME280;57335;52.288;6.056;2023-04-08T07:02:03;102568.56;;;2.58;100.00
69751;BME280;57335;52.288;6.056;2023-04-08T07:04:30;102554.41;;;2.51;100.00
69751;BME280;57335;52.288;6.056;2023-04-08T07:06:56;102563.63;;;2.55;100.00
69751;BME280;57335;52.288;6.056;2023-04-08T07:09:22;102567.28;;;2.64;100.00
69751;BME280;57335;52.288;6.056;2023-04-08T07:11:49;102561.66;;;2.70;100.00
69751;BME280;57335;52.288;6.056;2023-04-08T07:14:15;102580.25;;;2.99;100.00
69751;BME280;57335;52.288;6.056;2023-04-08T07:16:41;102553.81;;;3.07;100.00
69751;BME280;57335;52.288;6.056;2023-04-08T07:19:08;102575.66;;;3.49;100.00
69751;BME280;57335;52.288;6.056;2023-04-08T07:21:34;102559.97;;;3.62;100.00
69751;BME280;57335;52.288;6.056;2023-04-08T07:24:00;102584.50;;;4.03;100.00
69751;BME280;57335;52.288;6.056;2023-04-08T07:26:27;102562.19;;;4.23;100.00
69751;BME280;57335;52.288;6.056;2023-04-08T07:28:53;102591.09;;;4.62;100.00
69751;BME280;57335;52.288;6.056;2023-04-08T07:31:19;102582.16;;;4.87;100.00
69751;BME280;57335;52.288;6.056;2023-04-08T07:33:46;102583.94;;;5.08;100.00
69751;BME280;57335;52.288;6.056;2023-04-08T07:36:12;102599.06;;;5.24;100.00
69751;BME280;57335;52.288;6.056;2023-04-08T07:38:39;102595.75;;;5.43;100.00
69751;BME280;57335;52.288;6.056;2023-04-08T07:41:06;102589.22;;;5.48;100.00
69751;BME280;57335;52.288;6.056;2023-04-08T07:43:32;102583.03;;;5.70;100.00
69751;BME280;57335;52.288;6.056;2023-04-08T07:46:00;102593.34;;;5.82;100.00
69751;BME280;57335;52.288;6.056;2023-04-08T07:48:27;102604.19;;;5.87;100.00
69751;BME280;57335;52.288;6.056;2023-04-08T07:50:53;102612.69;;;5.89;100.00
69751;BME280;57335;52.288;6.056;2023-04-08T07:53:35;102587.19;;;5.83;100.00
69751;BME280;57335;52.288;6.056;2023-04-08T07:56:02;102607.75;;;5.86;100.00
69751;BME280;57335;52.288;6.056;2023-04-08T07:58:29;102601.84;;;5.84;100.00
69751;BME280;57335;52.288;6.056;2023-04-08T08:00:55;102606.41;;;5.91;100.00
69751;BME280;57335;52.288;6.056;2023-04-08T08:03:22;102606.25;;;5.93;100.00
69751;BME280;57335;52.288;6.056;2023-04-08T08:05:48;102611.41;;;6.04;100.00
69751;BME280;57335;52.288;6.056;2023-04-08T08:08:15;102611.06;;;6.28;100.00
69751;BME280;57335;52.288;6.056;2023-04-08T08:10:41;102607.78;;;6.55;100.00
69751;BME280;57335;52.288;6.056;2023-04-08T08:13:07;102611.66;;;7.10;100.00
69751;BME280;57335;52.288;6.056;2023-04-08T08:15:34;102607.06;;;7.78;100.00
69751;BME280;57335;52.288;6.056;2023-04-08T08:18:00;102605.59;;;8.49;95.40
69751;BME280;57335;52.288;6.056;2023-04-08T08:20:27;102609.50;;;9.25;93.46
69751;BME280;57335;52.288;6.056;2023-04-08T08:22:53;102614.03;;;10.26;91.39
69751;BME280;57335;52.288;6.056;2023-04-08T08:25:23;102610.41;;;10.94;83.21
69751;BME280;57335;52.288;6.056;2023-04-08T08:27:51;102614.22;;;11.56;89.17
69751;BME280;57335;52.288;6.056;2023-04-08T08:30:18;102608.50;;;12.31;83.32
69751;BME280;57335;52.288;6.056;2023-04-08T08:32:44;102611.41;;;13.21;82.65
69751;BME280;57335;52.288;6.056;2023-04-08T08:35:11;102627.81;;;13.75;71.73
69751;BME280;57335;52.288;6.056;2023-04-08T08:37:37;102613.31;;;13.27;67.23
69751;BME280;57335;52.288;6.056;2023-04-08T08:40:04;102615.06;;;13.20;72.55
69751;BME280;57335;52.288;6.056;2023-04-08T08:42:30;102628.25;;;13.34;73.38
69751;BME280;57335;52.288;6.056;2023-04-08T08:45:03;102622.81;;;13.51;72.75
69751;BME280;57335;52.288;6.056;2023-04-08T08:47:29;102624.00;;;12.95;70.77
69751;BME280;57335;52.288;6.056;2023-04-08T08:49:56;102625.34;;;12.45;72.13
69751;BME280;57335;52.288;6.056;2023-04-08T08:52:23;102620.34;;;11.96;72.89
69751;BME280;57335;52.288;6.056;2023-04-08T08:54:59;102629.72;;;11.90;74.90
69751;BME280;57335;52.288;6.056;2023-04-08T08:57:25;102635.19;;;11.89;75.56
69751;BME280;57335;52.288;6.056;2023-04-08T08:59:52;102629.69;;;11.51;75.60
69751;BME280;57335;52.288;6.056;2023-04-08T09:02:28;102637.72;;;11.49;74.08
69751;BME280;57335;52.288;6.056;2023-04-08T09:04:56;102627.41;;;11.31;75.32
69751;BME280;57335;52.288;6.056;2023-04-08T09:07:25;102635.78;;;11.43;78.02
69751;BME280;57335;52.288;6.056;2023-04-08T09:09:52;102641.88;;;11.27;76.21
69751;BME280;57335;52.288;6.056;2023-04-08T09:12:19;102632.88;;;11.05;78.11
69751;BME280;57335;52.288;6.056;2023-04-08T09:14:45;102631.69;;;10.58;78.61
69751;BME280;57335;52.288;6.056;2023-04-08T09:17:12;102621.50;;;10.47;81.30
69751;BME280;57335;52.288;6.056;2023-04-08T09:19:39;102623.19;;;10.56;83.25
69751;BME280;57335;52.288;6.056;2023-04-08T09:22:10;102613.34;;;10.58;79.58
69751;BME280;57335;52.288;6.056;2023-04-08T09:24:36;102612.34;;;10.92;84.16
69751;BME280;57335;52.288;6.056;2023-04-08T09:27:04;102625.63;;;11.24;79.32
69751;BME280;57335;52.288;6.056;2023-04-08T09:29:30;102629.56;;;11.28;78.89
69751;BME280;57335;52.288;6.056;2023-04-08T09:32:01;102621.28;;;11.55;82.92
69751;BME280;57335;52.288;6.056;2023-04-08T09:34:28;102639.91;;;11.93;76.34
69751;BME280;57335;52.288;6.056;2023-04-08T09:36:55;102643.72;;;11.91;76.32
69751;BME280;57335;52.288;6.056;2023-04-08T09:39:21;102641.38;;;11.88;77.39
69751;BME280;57335;52.288;6.056;2023-04-08T09:41:49;102645.66;;;11.97;74.37
69751;BME280;57335;52.288;6.056;2023-04-08T09:44:17;102642.94;;;12.13;74.94
69751;BME280;57335;52.288;6.056;2023-04-08T09:49:45;102654.56;;;12.50;72.35
69751;BME280;57335;52.288;6.056;2023-04-08T09:52:20;102642.88;;;12.76;76.81
69751;BME280;57335;52.288;6.056;2023-04-08T09:55:03;102650.72;;;13.22;72.88
69751;BME280;57335;52.288;6.056;2023-04-08T09:57:39;102646.59;;;13.05;69.74
69751;BME280;57335;52.288;6.056;2023-04-08T10:00:13;102652.00;;;13.11;69.72
69751;BME280;57335;52.288;6.056;2023-04-08T10:03:15;102659.25;;;13.47;70.40
69751;BME280;57335;52.288;6.056;2023-04-08T10:05:47;102646.91;;;13.48;71.01
69751;BME280;57335;52.288;6.056;2023-04-08T10:08:14;102639.44;;;13.51;71.84
69751;BME280;57335;52.288;6.056;2023-04-08T10:10:41;102623.66;;;13.13;66.66
69751;BME280;57335;52.288;6.056;2023-04-08T10:13:08;102634.38;;;13.27;68.63
69751;BME280;57335;52.288;6.056;2023-04-08T10:15:35;102625.63;;;12.96;68.49
69751;BME280;57335;52.288;6.056;2023-04-08T10:23:01;102647.19;;;13.15;70.00
69751;BME280;57335;52.288;6.056;2023-04-08T10:25:29;102637.03;;;13.27;69.36
69751;BME280;57335;52.288;6.056;2023-04-08T10:27:56;102634.88;;;12.92;69.65
69751;BME280;57335;52.288;6.056;2023-04-08T10:32:55;102638.75;;;11.88;71.61
69751;BME280;57335;52.288;6.056;2023-04-08T10:37:58;102655.88;;;11.75;76.72
69751;BME280;57335;52.288;6.056;2023-04-08T10:40:25;102653.09;;;11.77;74.17
69751;BME280;57335;52.288;6.056;2023-04-08T10:42:55;102641.66;;;11.53;78.40
69751;BME280;57335;52.288;6.056;2023-04-08T10:45:22;102622.69;;;11.74;76.10
69751;BME280;57335;52.288;6.056;2023-04-08T10:47:49;102615.75;;;11.98;79.29
69751;BME280;57335;52.288;6.056;2023-04-08T10:50:17;102617.47;;;12.14;71.77
69751;BME280;57335;52.288;6.056;2023-04-08T10:52:51;102618.94;;;12.16;71.08
69751;BME280;57335;52.288;6.056;2023-04-08T10:55:25;102624.59;;;12.05;72.58
69751;BME280;57335;52.288;6.056;2023-04-08T10:57:54;102624.47;;;12.30;72.25
69751;BME280;57335;52.288;6.056;2023-04-08T11:00:35;102623.41;;;12.62;74.71
69751;BME280;57335;52.288;6.056;2023-04-08T11:03:02;102626.94;;;12.54;68.51
69751;BME280;57335;52.288;6.056;2023-04-08T11:05:29;102623.31;;;12.55;71.56
69751;BME280;57335;52.288;6.056;2023-04-08T11:07:57;102626.06;;;12.08;68.66
69751;BME280;57335;52.288;6.056;2023-04-08T11:10:24;102628.88;;;11.98;69.76
69751;BME280;57335;52.288;6.056;2023-04-08T11:12:50;102618.31;;;11.67;75.67
69751;BME280;57335;52.288;6.056;2023-04-08T11:15:17;102615.31;;;11.78;76.35
69751;BME280;57335;52.288;6.056;2023-04-08T11:17:43;102626.81;;;12.16;75.39
69751;BME280;57335;52.288;6.056;2023-04-08T11:20:10;102628.41;;;11.94;69.54
69751;BME280;57335;52.288;6.056;2023-04-08T11:22:36;102631.75;;;11.72;74.57
69751;BME280;57335;52.288;6.056;2023-04-08T11:25:06;102630.59;;;11.66;75.39
69751;BME280;57335;52.288;6.056;2023-04-08T11:27:33;102626.72;;;11.46;75.64
69751;BME280;57335;52.288;6.056;2023-04-08T11:30:00;102637.22;;;11.46;77.06
69751;BME280;57335;52.288;6.056;2023-04-08T11:32:27;102626.13;;;11.19;78.84
69751;BME280;57335;52.288;6.056;2023-04-08T11:34:54;102622.81;;;11.33;78.62
69751;BME280;57335;52.288;6.056;2023-04-08T11:37:20;102632.03;;;11.13;79.22
69751;BME280;57335;52.288;6.056;2023-04-08T11:39:53;102632.50;;;11.33;78.60
69751;BME280;57335;52.288;6.056;2023-04-08T11:42:30;102632.78;;;11.46;75.91
69751;BME280;57335;52.288;6.056;2023-04-08T11:44:56;102624.47;;;11.43;80.00
69751;BME280;57335;52.288;6.056;2023-04-08T11:47:33;102631.00;;;11.47;78.96
69751;BME280;57335;52.288;6.056;2023-04-08T11:49:59;102624.97;;;11.22;79.86
69751;BME280;57335;52.288;6.056;2023-04-08T11:52:45;102628.91;;;11.26;82.24
69751;BME280;57335;52.288;6.056;2023-04-08T11:55:22;102627.47;;;11.07;81.17
69751;BME280;57335;52.288;6.056;2023-04-08T11:57:49;102634.34;;;11.00;80.36
69751;BME280;57335;52.288;6.056;2023-04-08T12:00:16;102627.75;;;11.12;81.57
69751;BME280;57335;52.288;6.056;2023-04-08T12:02:42;102622.34;;;11.13;82.81
69751;BME280;57335;52.288;6.056;2023-04-08T12:05:09;102631.38;;;11.19;82.33
69751;BME280;57335;52.288;6.056;2023-04-08T12:07:36;102618.72;;;11.14;80.02
69751;BME280;57335;52.288;6.056;2023-04-08T12:10:02;102624.25;;;11.44;80.22
69751;BME280;57335;52.288;6.056;2023-04-08T12:12:29;102624.59;;;11.49;78.92
69751;BME280;57335;52.288;6.056;2023-04-08T12:14:55;102626.41;;;11.49;80.71
69751;BME280;57335;52.288;6.056;2023-04-08T12:17:21;102617.25;;;11.20;79.75
69751;BME280;57335;52.288;6.056;2023-04-08T12:19:48;102628.56;;;11.12;81.60
69751;BME280;57335;52.288;6.056;2023-04-08T12:22:14;102613.66;;;11.21;81.63
69751;BME280;57335;52.288;6.056;2023-04-08T12:24:40;102624.75;;;11.48;82.01
69751;BME280;57335;52.288;6.056;2023-04-08T12:27:07;102611.38;;;11.74;79.51
69751;BME280;57335;52.288;6.056;2023-04-08T12:29:33;102630.06;;;11.95;77.49
69751;BME280;57335;52.288;6.056;2023-04-08T12:31:59;102613.72;;;12.08;76.60
69751;BME280;57335;52.288;6.056;2023-04-08T12:34:26;102615.94;;;12.28;78.22
69751;BME280;57335;52.288;6.056;2023-04-08T12:36:52;102626.22;;;12.37;74.79
69751;BME280;57335;52.288;6.056;2023-04-08T12:39:19;102627.47;;;12.50;72.46
69751;BME280;57335;52.288;6.056;2023-04-08T12:41:45;102612.91;;;12.62;71.50
69751;BME280;57335;52.288;6.056;2023-04-08T12:44:12;102621.06;;;12.90;70.34
69751;BME280;57335;52.288;6.056;2023-04-08T12:46:38;102619.63;;;13.03;71.17
69751;BME280;57335;52.288;6.056;2023-04-08T12:49:04;102613.66;;;13.09;70.02
69751;BME280;57335;52.288;6.056;2023-04-08T12:51:32;102614.75;;;13.00;75.57
69751;BME280;57335;52.288;6.056;2023-04-08T12:53:58;102626.16;;;12.92;73.61
69751;BME280;57335;52.288;6.056;2023-04-08T12:56:25;102612.09;;;12.62;71.17
69751;BME280;57335;52.288;6.056;2023-04-08T12:58:51;102634.28;;;12.82;74.11
69751;BME280;57335;52.288;6.056;2023-04-08T13:01:18;102606.94;;;12.91;72.46
69751;BME280;57335;52.288;6.056;2023-04-08T13:03:44;102607.78;;;13.22;74.72
69751;BME280;57335;52.288;6.056;2023-04-08T13:06:12;102619.28;;;13.44;72.57